Yarrawonga, Victoria

6:04 AM AEST on July 31, 2016 (GMT +1000)
Mulwala NSW | | Change Station

Elev 443 ft 35.99 °S, 146.00 °E | Updated 2 seconds ago

Rain
Rain
48.6 °F
Feels Like 46 °F
N
5.6
Wind Variable Wind from NNE
Gusts 7.4 mph

Today
High -- | Low -- °F
--% Chance of Precip.
Yesterday
High -- | Low -- °F
Precip. -- in
Pressure 30.04 in
Visibility 6.2 miles
Clouds Mostly Cloudy 2700 ft
Mostly Cloudy 3200 ft
Overcast 4100 ft
Windchill 46 °F
Dew Point 47 °F
Humidity 93%
Rainfall 0.04 in
Snow Depth Not available.
7:13 AM 5:31 PM
Waning Crescent, 11% visible
METAR YWGT 302000Z AUTO 35005KT 9999 RA BKN027 BKN032 OVC041 09/09 Q1017
Pressure 30.04 in
Visibility 6.2 miles
Clouds Mostly Cloudy 2700 ft
Mostly Cloudy 3200 ft
Overcast 4100 ft
Windchill 46 °F
Dew Point 47 °F
Humidity 93%
Rainfall 0.04 in
Snow Depth Not available.
7:13 AM 5:31 PM
Waning Crescent, 11% visible
METAR YWGT 302000Z AUTO 35005KT 9999 RA BKN027 BKN032 OVC041 09/09 Q1017

10-Day Weather Forecast

Almanac

Astronomy

Jul. 31, 2016 Rise Set
Actual Time
Civil Twilight
Nautical Twilight
Astronomical Twilight
Moon
Length of Visible Light
Length of Day
Tomorrow will be .
, % of the Moon is Illuminated

Today's Extremes

Country Highs Country Lows

Community

WunderPhotos

Upload Photos

1,928,630 photos uploaded!

WunderBlog® & News

Nearby

Air Quality

  Air Quality AQ Index Pollutant
Not available.

Snow Depth

Station Depth Elevation

Earthquake Activity

City Distance Mag. Time & Date
Minimum magnitude displayed is 2.5.

Coastal Water Temperatures

Place Temperature

Stations

Nearby Weather Stations

Station Location Temp. Windchill Dew Point Humidity Wind Precip. Elev Updated Type